sensor_id;sensor_type;location;lat;lon;timestamp;P1;durP1;ratioP1;P2;durP2;ratioP2
44810;SDS011;30526;52.184;4.476;2023-11-19T00:01:41;26.25;;;7.22;;
44810;SDS011;30526;52.184;4.476;2023-11-19T00:04:07;27.73;;;7.82;;
44810;SDS011;30526;52.184;4.476;2023-11-19T00:06:33;25.73;;;8.48;;
44810;SDS011;30526;52.184;4.476;2023-11-19T00:08:59;29.55;;;8.20;;
44810;SDS011;30526;52.184;4.476;2023-11-19T00:11:25;33.67;;;7.88;;
44810;SDS011;30526;52.184;4.476;2023-11-19T00:13:51;20.25;;;6.80;;
44810;SDS011;30526;52.184;4.476;2023-11-19T00:16:17;30.38;;;7.65;;
44810;SDS011;30526;52.184;4.476;2023-11-19T00:18:43;26.00;;;7.80;;
44810;SDS011;30526;52.184;4.476;2023-11-19T00:21:09;26.60;;;7.10;;
44810;SDS011;30526;52.184;4.476;2023-11-19T00:23:35;21.98;;;6.38;;
44810;SDS011;30526;52.184;4.476;2023-11-19T00:26:02;28.85;;;7.25;;
44810;SDS011;30526;52.184;4.476;2023-11-19T00:28:31;32.35;;;8.07;;
44810;SDS011;30526;52.184;4.476;2023-11-19T00:30:58;32.38;;;7.15;;
44810;SDS011;30526;52.184;4.476;2023-11-19T00:33:24;27.05;;;7.63;;
44810;SDS011;30526;52.184;4.476;2023-11-19T00:35:50;33.90;;;8.35;;
44810;SDS011;30526;52.184;4.476;2023-11-19T00:38:16;38.17;;;8.63;;
44810;SDS011;30526;52.184;4.476;2023-11-19T00:40:42;35.50;;;7.55;;
44810;SDS011;30526;52.184;4.476;2023-11-19T00:43:09;37.33;;;8.27;;
44810;SDS011;30526;52.184;4.476;2023-11-19T00:45:35;39.40;;;9.02;;
44810;SDS011;30526;52.184;4.476;2023-11-19T00:48:01;32.63;;;7.88;;
44810;SDS011;30526;52.184;4.476;2023-11-19T00:50:27;36.70;;;8.18;;
44810;SDS011;30526;52.184;4.476;2023-11-19T00:52:54;28.60;;;7.30;;
44810;SDS011;30526;52.184;4.476;2023-11-19T00:55:20;42.25;;;8.35;;
44810;SDS011;30526;52.184;4.476;2023-11-19T00:57:46;30.65;;;7.70;;
44810;SDS011;30526;52.184;4.476;2023-11-19T01:00:12;30.08;;;7.65;;
44810;SDS011;30526;52.184;4.476;2023-11-19T01:02:47;30.33;;;8.70;;
44810;SDS011;30526;52.184;4.476;2023-11-19T01:05:14;34.38;;;9.82;;
44810;SDS011;30526;52.184;4.476;2023-11-19T01:07:40;31.30;;;8.35;;
44810;SDS011;30526;52.184;4.476;2023-11-19T01:10:07;35.58;;;8.73;;
44810;SDS011;30526;52.184;4.476;2023-11-19T01:12:33;37.30;;;8.90;;
44810;SDS011;30526;52.184;4.476;2023-11-19T01:14:59;34.88;;;8.57;;
44810;SDS011;30526;52.184;4.476;2023-11-19T01:17:26;24.50;;;7.13;;
44810;SDS011;30526;52.184;4.476;2023-11-19T01:19:52;35.53;;;8.95;;
44810;SDS011;30526;52.184;4.476;2023-11-19T01:22:18;36.70;;;8.88;;
44810;SDS011;30526;52.184;4.476;2023-11-19T01:24:44;44.78;;;8.70;;
44810;SDS011;30526;52.184;4.476;2023-11-19T01:27:10;30.45;;;9.13;;
44810;SDS011;30526;52.184;4.476;2023-11-19T01:29:36;47.15;;;9.57;;
44810;SDS011;30526;52.184;4.476;2023-11-19T01:32:03;25.42;;;8.32;;
44810;SDS011;30526;52.184;4.476;2023-11-19T01:34:29;36.83;;;9.77;;
44810;SDS011;30526;52.184;4.476;2023-11-19T01:36:55;31.42;;;9.40;;
44810;SDS011;30526;52.184;4.476;2023-11-19T01:39:21;37.85;;;9.43;;
44810;SDS011;30526;52.184;4.476;2023-11-19T01:41:47;39.58;;;9.82;;
44810;SDS011;30526;52.184;4.476;2023-11-19T01:44:13;44.13;;;9.77;;
44810;SDS011;30526;52.184;4.476;2023-11-19T01:46:43;37.45;;;10.10;;
44810;SDS011;30526;52.184;4.476;2023-11-19T01:49:10;32.25;;;9.15;;
44810;SDS011;30526;52.184;4.476;2023-11-19T01:51:37;44.17;;;10.13;;
44810;SDS011;30526;52.184;4.476;2023-11-19T01:54:03;40.77;;;9.00;;
44810;SDS011;30526;52.184;4.476;2023-11-19T01:56:29;31.88;;;9.90;;
44810;SDS011;30526;52.184;4.476;2023-11-19T01:58:56;32.47;;;8.93;;
44810;SDS011;30526;52.184;4.476;2023-11-19T02:01:22;32.97;;;9.53;;
44810;SDS011;30526;52.184;4.476;2023-11-19T02:03:49;29.88;;;7.72;;
44810;SDS011;30526;52.184;4.476;2023-11-19T02:06:15;40.92;;;10.70;;
44810;SDS011;30526;52.184;4.476;2023-11-19T02:08:41;46.80;;;9.95;;
44810;SDS011;30526;52.184;4.476;2023-11-19T02:11:08;36.70;;;9.98;;
44810;SDS011;30526;52.184;4.476;2023-11-19T02:13:34;45.63;;;10.65;;
44810;SDS011;30526;52.184;4.476;2023-11-19T02:16:03;42.20;;;9.65;;
44810;SDS011;30526;52.184;4.476;2023-11-19T02:18:29;36.03;;;10.43;;
44810;SDS011;30526;52.184;4.476;2023-11-19T02:20:58;43.13;;;9.30;;
44810;SDS011;30526;52.184;4.476;2023-11-19T02:23:28;50.95;;;10.10;;
44810;SDS011;30526;52.184;4.476;2023-11-19T02:26:00;50.80;;;9.73;;
44810;SDS011;30526;52.184;4.476;2023-11-19T02:28:27;46.30;;;10.30;;
44810;SDS011;30526;52.184;4.476;2023-11-19T02:30:53;42.45;;;9.60;;
44810;SDS011;30526;52.184;4.476;2023-11-19T02:33:19;39.50;;;10.13;;
44810;SDS011;30526;52.184;4.476;2023-11-19T02:35:45;42.72;;;10.65;;
44810;SDS011;30526;52.184;4.476;2023-11-19T02:38:11;48.30;;;10.68;;
44810;SDS011;30526;52.184;4.476;2023-11-19T02:40:39;45.30;;;10.45;;
44810;SDS011;30526;52.184;4.476;2023-11-19T02:43:05;53.80;;;10.27;;
44810;SDS011;30526;52.184;4.476;2023-11-19T02:45:31;54.85;;;10.13;;
44810;SDS011;30526;52.184;4.476;2023-11-19T02:47:57;34.58;;;8.68;;
44810;SDS011;30526;52.184;4.476;2023-11-19T02:50:26;46.15;;;9.77;;
44810;SDS011;30526;52.184;4.476;2023-11-19T02:52:53;48.83;;;9.27;;
44810;SDS011;30526;52.184;4.476;2023-11-19T02:55:21;33.55;;;9.25;;
44810;SDS011;30526;52.184;4.476;2023-11-19T02:57:48;39.35;;;8.70;;
44810;SDS011;30526;52.184;4.476;2023-11-19T03:00:15;47.53;;;9.15;;
44810;SDS011;30526;52.184;4.476;2023-11-19T03:02:42;38.90;;;9.60;;
44810;SDS011;30526;52.184;4.476;2023-11-19T03:05:13;44.10;;;9.50;;
44810;SDS011;30526;52.184;4.476;2023-11-19T03:07:42;35.60;;;9.35;;
44810;SDS011;30526;52.184;4.476;2023-11-19T03:10:12;39.77;;;9.77;;
44810;SDS011;30526;52.184;4.476;2023-11-19T03:12:41;31.30;;;8.85;;
44810;SDS011;30526;52.184;4.476;2023-11-19T03:15:07;35.70;;;8.70;;
44810;SDS011;30526;52.184;4.476;2023-11-19T03:17:40;44.65;;;9.45;;
44810;SDS011;30526;52.184;4.476;2023-11-19T03:20:07;47.53;;;10.32;;
44810;SDS011;30526;52.184;4.476;2023-11-19T03:22:42;35.38;;;8.95;;
44810;SDS011;30526;52.184;4.476;2023-11-19T03:25:12;41.17;;;9.27;;
44810;SDS011;30526;52.184;4.476;2023-11-19T03:27:38;41.13;;;8.77;;
44810;SDS011;30526;52.184;4.476;2023-11-19T03:30:06;45.17;;;9.75;;
44810;SDS011;30526;52.184;4.476;2023-11-19T03:32:34;44.35;;;9.15;;
44810;SDS011;30526;52.184;4.476;2023-11-19T03:35:00;40.50;;;9.63;;
44810;SDS011;30526;52.184;4.476;2023-11-19T03:37:27;42.57;;;8.90;;
44810;SDS011;30526;52.184;4.476;2023-11-19T03:39:53;39.28;;;9.15;;
44810;SDS011;30526;52.184;4.476;2023-11-19T03:42:20;28.63;;;7.97;;
44810;SDS011;30526;52.184;4.476;2023-11-19T03:44:46;40.00;;;9.10;;
44810;SDS011;30526;52.184;4.476;2023-11-19T03:47:12;36.20;;;10.82;;
44810;SDS011;30526;52.184;4.476;2023-11-19T03:49:38;40.78;;;9.43;;
44810;SDS011;30526;52.184;4.476;2023-11-19T03:52:04;47.55;;;9.68;;
44810;SDS011;30526;52.184;4.476;2023-11-19T03:54:30;47.05;;;9.75;;
44810;SDS011;30526;52.184;4.476;2023-11-19T03:56:57;40.72;;;9.98;;
44810;SDS011;30526;52.184;4.476;2023-11-19T04:01:51;55.20;;;9.53;;
44810;SDS011;30526;52.184;4.476;2023-11-19T04:04:18;43.15;;;10.55;;
44810;SDS011;30526;52.184;4.476;2023-11-19T04:06:44;46.05;;;10.10;;
44810;SDS011;30526;52.184;4.476;2023-11-19T04:09:10;42.80;;;9.95;;
44810;SDS011;30526;52.184;4.476;2023-11-19T04:11:36;43.67;;;8.80;;
44810;SDS011;30526;52.184;4.476;2023-11-19T04:14:02;49.50;;;9.55;;
44810;SDS011;30526;52.184;4.476;2023-11-19T04:16:28;40.42;;;9.88;;
44810;SDS011;30526;52.184;4.476;2023-11-19T04:18:55;31.37;;;8.60;;
44810;SDS011;30526;52.184;4.476;2023-11-19T04:21:21;42.10;;;9.00;;
44810;SDS011;30526;52.184;4.476;2023-11-19T04:26:14;46.93;;;9.47;;
44810;SDS011;30526;52.184;4.476;2023-11-19T04:28:40;44.37;;;10.67;;
44810;SDS011;30526;52.184;4.476;2023-11-19T04:31:06;44.55;;;10.27;;
44810;SDS011;30526;52.184;4.476;2023-11-19T04:33:34;48.58;;;10.25;;
44810;SDS011;30526;52.184;4.476;2023-11-19T04:36:00;47.55;;;8.90;;
44810;SDS011;30526;52.184;4.476;2023-11-19T04:38:27;31.00;;;9.88;;
44810;SDS011;30526;52.184;4.476;2023-11-19T04:40:53;43.60;;;8.60;;
44810;SDS011;30526;52.184;4.476;2023-11-19T04:43:19;39.53;;;8.38;;
44810;SDS011;30526;52.184;4.476;2023-11-19T04:45:45;24.65;;;7.45;;
44810;SDS011;30526;52.184;4.476;2023-11-19T04:48:11;39.33;;;9.43;;
44810;SDS011;30526;52.184;4.476;2023-11-19T04:50:37;36.55;;;9.45;;
44810;SDS011;30526;52.184;4.476;2023-11-19T04:53:03;63.67;;;10.43;;
44810;SDS011;30526;52.184;4.476;2023-11-19T04:55:29;33.58;;;9.80;;
44810;SDS011;30526;52.184;4.476;2023-11-19T04:57:55;38.28;;;9.88;;
44810;SDS011;30526;52.184;4.476;2023-11-19T05:00:21;35.63;;;9.38;;
44810;SDS011;30526;52.184;4.476;2023-11-19T05:02:47;35.42;;;9.48;;
44810;SDS011;30526;52.184;4.476;2023-11-19T05:05:15;42.00;;;10.07;;
44810;SDS011;30526;52.184;4.476;2023-11-19T05:07:41;36.08;;;9.32;;
44810;SDS011;30526;52.184;4.476;2023-11-19T05:10:07;37.80;;;10.35;;
44810;SDS011;30526;52.184;4.476;2023-11-19T05:12:33;38.40;;;9.20;;
44810;SDS011;30526;52.184;4.476;2023-11-19T05:14:59;43.63;;;9.95;;
44810;SDS011;30526;52.184;4.476;2023-11-19T05:17:25;34.88;;;10.05;;
44810;SDS011;30526;52.184;4.476;2023-11-19T05:19:52;38.20;;;9.73;;
44810;SDS011;30526;52.184;4.476;2023-11-19T05:22:18;38.35;;;10.90;;
44810;SDS011;30526;52.184;4.476;2023-11-19T05:24:45;44.47;;;10.40;;
44810;SDS011;30526;52.184;4.476;2023-11-19T05:27:13;43.88;;;9.80;;
44810;SDS011;30526;52.184;4.476;2023-11-19T05:29:39;38.28;;;10.77;;
44810;SDS011;30526;52.184;4.476;2023-11-19T05:34:32;28.10;;;9.00;;
44810;SDS011;30526;52.184;4.476;2023-11-19T05:36:58;40.20;;;9.32;;
44810;SDS011;30526;52.184;4.476;2023-11-19T05:39:24;42.10;;;9.02;;
44810;SDS011;30526;52.184;4.476;2023-11-19T05:41:50;43.42;;;10.35;;
44810;SDS011;30526;52.184;4.476;2023-11-19T05:44:17;34.45;;;10.45;;
44810;SDS011;30526;52.184;4.476;2023-11-19T05:46:44;50.97;;;10.48;;
44810;SDS011;30526;52.184;4.476;2023-11-19T05:49:10;43.63;;;10.02;;
44810;SDS011;30526;52.184;4.476;2023-11-19T05:51:39;40.03;;;9.90;;
44810;SDS011;30526;52.184;4.476;2023-11-19T05:54:09;39.58;;;9.68;;
44810;SDS011;30526;52.184;4.476;2023-11-19T05:56:35;37.88;;;9.65;;
44810;SDS011;30526;52.184;4.476;2023-11-19T05:59:02;33.30;;;10.02;;
44810;SDS011;30526;52.184;4.476;2023-11-19T06:01:33;34.60;;;9.45;;
44810;SDS011;30526;52.184;4.476;2023-11-19T06:04:00;38.88;;;9.23;;
44810;SDS011;30526;52.184;4.476;2023-11-19T06:06:26;41.28;;;9.88;;
44810;SDS011;30526;52.184;4.476;2023-11-19T06:08:52;31.07;;;7.80;;
44810;SDS011;30526;52.184;4.476;2023-11-19T06:11:18;33.38;;;9.88;;
44810;SDS011;30526;52.184;4.476;2023-11-19T06:16:13;30.58;;;8.80;;
44810;SDS011;30526;52.184;4.476;2023-11-19T06:18:39;32.88;;;8.13;;
44810;SDS011;30526;52.184;4.476;2023-11-19T06:21:06;33.35;;;9.00;;
44810;SDS011;30526;52.184;4.476;2023-11-19T06:23:32;36.33;;;9.52;;
44810;SDS011;30526;52.184;4.476;2023-11-19T06:25:58;45.30;;;10.23;;
44810;SDS011;30526;52.184;4.476;2023-11-19T06:28:24;34.28;;;8.98;;
44810;SDS011;30526;52.184;4.476;2023-11-19T06:30:50;40.50;;;8.98;;
44810;SDS011;30526;52.184;4.476;2023-11-19T06:33:16;38.92;;;10.48;;
44810;SDS011;30526;52.184;4.476;2023-11-19T06:35:42;43.67;;;10.00;;
44810;SDS011;30526;52.184;4.476;2023-11-19T06:38:08;44.28;;;10.25;;
44810;SDS011;30526;52.184;4.476;2023-11-19T06:40:35;39.70;;;9.65;;
44810;SDS011;30526;52.184;4.476;2023-11-19T06:43:01;31.33;;;8.15;;
44810;SDS011;30526;52.184;4.476;2023-11-19T06:45:30;53.45;;;11.02;;
44810;SDS011;30526;52.184;4.476;2023-11-19T06:47:56;50.58;;;10.57;;
44810;SDS011;30526;52.184;4.476;2023-11-19T06:50:23;39.63;;;8.88;;
44810;SDS011;30526;52.184;4.476;2023-11-19T06:52:49;53.72;;;10.40;;
44810;SDS011;30526;52.184;4.476;2023-11-19T06:55:15;45.22;;;10.18;;
44810;SDS011;30526;52.184;4.476;2023-11-19T06:57:41;38.22;;;9.57;;
44810;SDS011;30526;52.184;4.476;2023-11-19T07:00:07;32.03;;;9.48;;
44810;SDS011;30526;52.184;4.476;2023-11-19T07:02:33;44.55;;;9.55;;
44810;SDS011;30526;52.184;4.476;2023-11-19T07:04:59;33.20;;;8.90;;
44810;SDS011;30526;52.184;4.476;2023-11-19T07:07:25;37.45;;;9.32;;
44810;SDS011;30526;52.184;4.476;2023-11-19T07:09:51;43.72;;;9.60;;
44810;SDS011;30526;52.184;4.476;2023-11-19T07:12:17;32.80;;;10.02;;
44810;SDS011;30526;52.184;4.476;2023-11-19T07:14:43;37.88;;;10.40;;
44810;SDS011;30526;52.184;4.476;2023-11-19T07:17:09;33.13;;;10.80;;
44810;SDS011;30526;52.184;4.476;2023-11-19T07:19:35;36.40;;;10.13;;
44810;SDS011;30526;52.184;4.476;2023-11-19T07:22:03;38.58;;;10.63;;
44810;SDS011;30526;52.184;4.476;2023-11-19T07:24:29;33.00;;;9.97;;
44810;SDS011;30526;52.184;4.476;2023-11-19T07:26:55;48.55;;;9.82;;
44810;SDS011;30526;52.184;4.476;2023-11-19T07:29:21;42.63;;;8.55;;
44810;SDS011;30526;52.184;4.476;2023-11-19T07:31:50;41.53;;;10.35;;
44810;SDS011;30526;52.184;4.476;2023-11-19T07:34:16;32.58;;;8.85;;
44810;SDS011;30526;52.184;4.476;2023-11-19T07:36:42;40.08;;;9.82;;
44810;SDS011;30526;52.184;4.476;2023-11-19T07:39:08;44.33;;;10.02;;
44810;SDS011;30526;52.184;4.476;2023-11-19T07:41:35;39.42;;;9.75;;
44810;SDS011;30526;52.184;4.476;2023-11-19T07:44:01;37.92;;;9.32;;
44810;SDS011;30526;52.184;4.476;2023-11-19T07:46:27;38.17;;;8.90;;
44810;SDS011;30526;52.184;4.476;2023-11-19T07:48:53;34.78;;;9.45;;
44810;SDS011;30526;52.184;4.476;2023-11-19T07:51:19;35.78;;;9.90;;
44810;SDS011;30526;52.184;4.476;2023-11-19T07:53:45;38.60;;;9.73;;
44810;SDS011;30526;52.184;4.476;2023-11-19T07:56:11;35.15;;;9.80;;
44810;SDS011;30526;52.184;4.476;2023-11-19T07:58:37;36.30;;;9.88;;
44810;SDS011;30526;52.184;4.476;2023-11-19T08:01:03;38.95;;;9.80;;
44810;SDS011;30526;52.184;4.476;2023-11-19T08:03:29;32.53;;;9.88;;
44810;SDS011;30526;52.184;4.476;2023-11-19T08:05:55;38.45;;;9.38;;
44810;SDS011;30526;52.184;4.476;2023-11-19T08:08:22;31.38;;;9.02;;
44810;SDS011;30526;52.184;4.476;2023-11-19T08:10:48;43.65;;;9.52;;
44810;SDS011;30526;52.184;4.476;2023-11-19T08:13:16;34.67;;;9.10;;
44810;SDS011;30526;52.184;4.476;2023-11-19T08:15:42;40.10;;;10.32;;
44810;SDS011;30526;52.184;4.476;2023-11-19T08:18:08;32.60;;;9.73;;
44810;SDS011;30526;52.184;4.476;2023-11-19T08:20:34;41.42;;;10.82;;
44810;SDS011;30526;52.184;4.476;2023-11-19T08:23:02;43.92;;;10.15;;
44810;SDS011;30526;52.184;4.476;2023-11-19T08:25:31;41.42;;;9.93;;
44810;SDS011;30526;52.184;4.476;2023-11-19T08:27:58;38.78;;;10.18;;
44810;SDS011;30526;52.184;4.476;2023-11-19T08:32:52;24.90;;;9.00;;
44810;SDS011;30526;52.184;4.476;2023-11-19T08:35:18;38.63;;;10.20;;
44810;SDS011;30526;52.184;4.476;2023-11-19T08:37:44;42.85;;;10.18;;
44810;SDS011;30526;52.184;4.476;2023-11-19T08:40:11;28.77;;;10.07;;
44810;SDS011;30526;52.184;4.476;2023-11-19T08:42:39;45.30;;;9.48;;
44810;SDS011;30526;52.184;4.476;2023-11-19T08:45:06;34.25;;;9.60;;
44810;SDS011;30526;52.184;4.476;2023-11-19T08:47:32;37.67;;;9.60;;
44810;SDS011;30526;52.184;4.476;2023-11-19T08:49:58;51.30;;;10.82;;
44810;SDS011;30526;52.184;4.476;2023-11-19T08:52:24;43.63;;;10.27;;
44810;SDS011;30526;52.184;4.476;2023-11-19T08:54:50;36.13;;;10.25;;
44810;SDS011;30526;52.184;4.476;2023-11-19T08:57:16;37.20;;;10.10;;
44810;SDS011;30526;52.184;4.476;2023-11-19T08:59:42;41.63;;;9.93;;
44810;SDS011;30526;52.184;4.476;2023-11-19T09:02:10;35.60;;;9.40;;
44810;SDS011;30526;52.184;4.476;2023-11-19T09:04:36;54.13;;;9.70;;
44810;SDS011;30526;52.184;4.476;2023-11-19T09:07:02;39.58;;;9.63;;
44810;SDS011;30526;52.184;4.476;2023-11-19T09:09:28;37.85;;;9.10;;
44810;SDS011;30526;52.184;4.476;2023-11-19T09:11:55;29.58;;;9.25;;
44810;SDS011;30526;52.184;4.476;2023-11-19T09:14:21;40.67;;;10.65;;
44810;SDS011;30526;52.184;4.476;2023-11-19T09:16:51;47.95;;;10.25;;
44810;SDS011;30526;52.184;4.476;2023-11-19T09:19:17;34.92;;;10.23;;
44810;SDS011;30526;52.184;4.476;2023-11-19T09:21:44;45.67;;;10.00;;
44810;SDS011;30526;52.184;4.476;2023-11-19T09:24:09;36.88;;;10.25;;
44810;SDS011;30526;52.184;4.476;2023-11-19T09:26:35;43.45;;;10.10;;
44810;SDS011;30526;52.184;4.476;2023-11-19T09:29:04;46.65;;;9.68;;
44810;SDS011;30526;52.184;4.476;2023-11-19T09:31:30;44.25;;;10.32;;
44810;SDS011;30526;52.184;4.476;2023-11-19T09:33:57;32.15;;;10.02;;
44810;SDS011;30526;52.184;4.476;2023-11-19T09:36:23;35.40;;;9.77;;
44810;SDS011;30526;52.184;4.476;2023-11-19T09:38:49;35.00;;;9.45;;
44810;SDS011;30526;52.184;4.476;2023-11-19T09:41:15;51.47;;;10.95;;
44810;SDS011;30526;52.184;4.476;2023-11-19T09:43:42;42.85;;;10.85;;
44810;SDS011;30526;52.184;4.476;2023-11-19T09:46:11;36.47;;;10.73;;
44810;SDS011;30526;52.184;4.476;2023-11-19T09:48:38;32.13;;;10.93;;
44810;SDS011;30526;52.184;4.476;2023-11-19T09:51:10;35.60;;;10.15;;
44810;SDS011;30526;52.184;4.476;2023-11-19T09:53:36;27.40;;;9.75;;
44810;SDS011;30526;52.184;4.476;2023-11-19T09:56:03;31.10;;;10.82;;
44810;SDS011;30526;52.184;4.476;2023-11-19T09:58:30;30.17;;;9.35;;
44810;SDS011;30526;52.184;4.476;2023-11-19T10:00:56;41.08;;;13.02;;
44810;SDS011;30526;52.184;4.476;2023-11-19T10:03:43;36.92;;;12.70;;
44810;SDS011;30526;52.184;4.476;2023-11-19T10:06:12;35.00;;;15.02;;
44810;SDS011;30526;52.184;4.476;2023-11-19T10:08:39;38.72;;;14.00;;
44810;SDS011;30526;52.184;4.476;2023-11-19T10:11:06;46.03;;;14.77;;
44810;SDS011;30526;52.184;4.476;2023-11-19T10:13:33;45.80;;;14.52;;
44810;SDS011;30526;52.184;4.476;2023-11-19T10:16:09;40.47;;;14.05;;
44810;SDS011;30526;52.184;4.476;2023-11-19T10:18:36;41.85;;;13.95;;
44810;SDS011;30526;52.184;4.476;2023-11-19T10:21:06;33.63;;;13.90;;
44810;SDS011;30526;52.184;4.476;2023-11-19T10:26:17;36.47;;;13.82;;
44810;SDS011;30526;52.184;4.476;2023-11-19T10:28:43;39.70;;;14.65;;
44810;SDS011;30526;52.184;4.476;2023-11-19T10:31:18;36.88;;;13.30;;
44810;SDS011;30526;52.184;4.476;2023-11-19T10:33:44;34.00;;;13.80;;
44810;SDS011;30526;52.184;4.476;2023-11-19T10:36:11;32.15;;;13.23;;
44810;SDS011;30526;52.184;4.476;2023-11-19T10:38:38;36.83;;;13.17;;
44810;SDS011;30526;52.184;4.476;2023-11-19T10:41:04;31.95;;;13.32;;
44810;SDS011;30526;52.184;4.476;2023-11-19T10:43:30;37.20;;;12.32;;
44810;SDS011;30526;52.184;4.476;2023-11-19T10:46:09;39.77;;;12.93;;
44810;SDS011;30526;52.184;4.476;2023-11-19T10:48:36;22.75;;;12.82;;
44810;SDS011;30526;52.184;4.476;2023-11-19T10:51:03;46.03;;;13.02;;
44810;SDS011;30526;52.184;4.476;2023-11-19T10:53:32;41.40;;;12.35;;
44810;SDS011;30526;52.184;4.476;2023-11-19T10:55:59;35.83;;;11.90;;
44810;SDS011;30526;52.184;4.476;2023-11-19T10:58:26;40.63;;;12.40;;
44810;SDS011;30526;52.184;4.476;2023-11-19T11:00:55;30.73;;;12.05;;
44810;SDS011;30526;52.184;4.476;2023-11-19T11:03:27;38.70;;;11.38;;
44810;SDS011;30526;52.184;4.476;2023-11-19T11:05:55;37.72;;;10.00;;
44810;SDS011;30526;52.184;4.476;2023-11-19T11:08:23;26.17;;;10.15;;
44810;SDS011;30526;52.184;4.476;2023-11-19T11:10:52;35.72;;;10.50;;
44810;SDS011;30526;52.184;4.476;2023-11-19T11:13:19;24.75;;;9.90;;
44810;SDS011;30526;52.184;4.476;2023-11-19T11:15:45;34.83;;;11.27;;
44810;SDS011;30526;52.184;4.476;2023-11-19T11:18:14;40.22;;;12.02;;
44810;SDS011;30526;52.184;4.476;2023-11-19T11:20:40;33.60;;;11.23;;
44810;SDS011;30526;52.184;4.476;2023-11-19T11:33:28;36.95;;;11.07;;
44810;SDS011;30526;52.184;4.476;2023-11-19T11:36:17;32.92;;;11.23;;
44810;SDS011;30526;52.184;4.476;2023-11-19T11:38:45;32.70;;;10.27;;
44810;SDS011;30526;52.184;4.476;2023-11-19T11:41:17;35.63;;;10.93;;
44810;SDS011;30526;52.184;4.476;2023-11-19T11:43:48;28.25;;;10.85;;
44810;SDS011;30526;52.184;4.476;2023-11-19T11:49:00;38.28;;;11.38;;
44810;SDS011;30526;52.184;4.476;2023-11-19T11:59:46;43.63;;;11.88;;
44810;SDS011;30526;52.184;4.476;2023-11-19T12:02:13;30.48;;;10.57;;
44810;SDS011;30526;52.184;4.476;2023-11-19T12:04:41;39.22;;;11.00;;
44810;SDS011;30526;52.184;4.476;2023-11-19T12:07:40;32.40;;;11.55;;
44810;SDS011;30526;52.184;4.476;2023-11-19T12:10:06;28.60;;;10.63;;
44810;SDS011;30526;52.184;4.476;2023-11-19T12:12:41;28.15;;;10.82;;
44810;SDS011;30526;52.184;4.476;2023-11-19T12:15:07;29.65;;;11.63;;
44810;SDS011;30526;52.184;4.476;2023-11-19T12:17:48;37.05;;;11.68;;
44810;SDS011;30526;52.184;4.476;2023-11-19T12:20:14;29.20;;;9.88;;
44810;SDS011;30526;52.184;4.476;2023-11-19T12:25:08;32.53;;;10.57;;
44810;SDS011;30526;52.184;4.476;2023-11-19T12:27:34;40.15;;;11.82;;
44810;SDS011;30526;52.184;4.476;2023-11-19T12:30:01;25.60;;;9.93;;
44810;SDS011;30526;52.184;4.476;2023-11-19T12:32:37;31.48;;;11.15;;
44810;SDS011;30526;52.184;4.476;2023-11-19T12:35:03;32.33;;;11.25;;
44810;SDS011;30526;52.184;4.476;2023-11-19T12:37:29;29.48;;;10.85;;
44810;SDS011;30526;52.184;4.476;2023-11-19T12:39:56;31.17;;;10.50;;
44810;SDS011;30526;52.184;4.476;2023-11-19T12:42:44;22.05;;;9.38;;
44810;SDS011;30526;52.184;4.476;2023-11-19T12:45:09;37.17;;;10.85;;
44810;SDS011;30526;52.184;4.476;2023-11-19T12:47:36;34.27;;;9.90;;
44810;SDS011;30526;52.184;4.476;2023-11-19T12:50:02;26.42;;;9.73;;
44810;SDS011;30526;52.184;4.476;2023-11-19T12:52:29;34.47;;;11.27;;
44810;SDS011;30526;52.184;4.476;2023-11-19T12:54:55;23.25;;;9.13;;
44810;SDS011;30526;52.184;4.476;2023-11-19T12:57:35;31.52;;;9.90;;
44810;SDS011;30526;52.184;4.476;2023-11-19T13:00:01;40.50;;;11.15;;
44810;SDS011;30526;52.184;4.476;2023-11-19T13:02:44;27.90;;;10.80;;
44810;SDS011;30526;52.184;4.476;2023-11-19T13:05:30;43.72;;;12.43;;
44810;SDS011;30526;52.184;4.476;2023-11-19T13:07:58;31.20;;;10.10;;
44810;SDS011;30526;52.184;4.476;2023-11-19T13:10:26;28.95;;;10.02;;
44810;SDS011;30526;52.184;4.476;2023-11-19T13:12:59;47.35;;;11.07;;
44810;SDS011;30526;52.184;4.476;2023-11-19T13:15:25;29.45;;;8.93;;
44810;SDS011;30526;52.184;4.476;2023-11-19T13:17:51;37.00;;;10.18;;
44810;SDS011;30526;52.184;4.476;2023-11-19T13:20:19;30.55;;;9.82;;
44810;SDS011;30526;52.184;4.476;2023-11-19T13:22:56;41.92;;;10.23;;
44810;SDS011;30526;52.184;4.476;2023-11-19T13:25:22;34.00;;;10.63;;
44810;SDS011;30526;52.184;4.476;2023-11-19T13:27:48;28.48;;;10.85;;
44810;SDS011;30526;52.184;4.476;2023-11-19T13:30:14;33.88;;;10.88;;
44810;SDS011;30526;52.184;4.476;2023-11-19T13:32:41;31.98;;;10.43;;
44810;SDS011;30526;52.184;4.476;2023-11-19T13:35:09;29.08;;;9.88;;
44810;SDS011;30526;52.184;4.476;2023-11-19T13:37:35;30.27;;;9.43;;
44810;SDS011;30526;52.184;4.476;2023-11-19T13:40:01;42.45;;;11.45;;
44810;SDS011;30526;52.184;4.476;2023-11-19T13:42:28;28.50;;;10.15;;
44810;SDS011;30526;52.184;4.476;2023-11-19T13:44:54;33.20;;;10.48;;
44810;SDS011;30526;52.184;4.476;2023-11-19T13:47:21;32.67;;;10.73;;
44810;SDS011;30526;52.184;4.476;2023-11-19T13:49:48;39.67;;;10.32;;
44810;SDS011;30526;52.184;4.476;2023-11-19T13:52:14;28.27;;;10.57;;
44810;SDS011;30526;52.184;4.476;2023-11-19T13:54:40;24.25;;;11.00;;
44810;SDS011;30526;52.184;4.476;2023-11-19T13:57:06;41.78;;;10.98;;
44810;SDS011;30526;52.184;4.476;2023-11-19T13:59:32;31.88;;;11.32;;
44810;SDS011;30526;52.184;4.476;2023-11-19T14:01:58;32.35;;;9.90;;
44810;SDS011;30526;52.184;4.476;2023-11-19T14:04:24;40.47;;;10.45;;
44810;SDS011;30526;52.184;4.476;2023-11-19T14:06:51;28.67;;;9.30;;
44810;SDS011;30526;52.184;4.476;2023-11-19T14:09:17;36.42;;;10.32;;
44810;SDS011;30526;52.184;4.476;2023-11-19T14:11:43;42.05;;;10.07;;
44810;SDS011;30526;52.184;4.476;2023-11-19T14:14:09;39.70;;;9.98;;
44810;SDS011;30526;52.184;4.476;2023-11-19T14:16:35;38.25;;;11.45;;
44810;SDS011;30526;52.184;4.476;2023-11-19T14:19:02;40.40;;;9.70;;
44810;SDS011;30526;52.184;4.476;2023-11-19T14:21:28;31.52;;;9.85;;
44810;SDS011;30526;52.184;4.476;2023-11-19T14:23:54;38.17;;;11.20;;
44810;SDS011;30526;52.184;4.476;2023-11-19T14:26:20;23.27;;;8.37;;
44810;SDS011;30526;52.184;4.476;2023-11-19T14:28:46;45.17;;;9.63;;
44810;SDS011;30526;52.184;4.476;2023-11-19T14:31:12;33.25;;;9.82;;
44810;SDS011;30526;52.184;4.476;2023-11-19T14:33:38;40.25;;;9.27;;
44810;SDS011;30526;52.184;4.476;2023-11-19T14:36:04;33.40;;;9.63;;
44810;SDS011;30526;52.184;4.476;2023-11-19T14:38:32;36.70;;;9.85;;
44810;SDS011;30526;52.184;4.476;2023-11-19T14:40:58;34.90;;;9.73;;
44810;SDS011;30526;52.184;4.476;2023-11-19T14:45:51;40.80;;;9.30;;
44810;SDS011;30526;52.184;4.476;2023-11-19T14:48:17;33.47;;;9.70;;
44810;SDS011;30526;52.184;4.476;2023-11-19T14:50:43;21.15;;;8.30;;
44810;SDS011;30526;52.184;4.476;2023-11-19T14:53:10;36.17;;;9.70;;
44810;SDS011;30526;52.184;4.476;2023-11-19T14:55:36;29.47;;;9.13;;
44810;SDS011;30526;52.184;4.476;2023-11-19T14:58:02;38.97;;;10.00;;
44810;SDS011;30526;52.184;4.476;2023-11-19T15:00:28;30.42;;;9.90;;
44810;SDS011;30526;52.184;4.476;2023-11-19T15:02:54;31.52;;;10.00;;
44810;SDS011;30526;52.184;4.476;2023-11-19T15:05:21;30.70;;;9.63;;
44810;SDS011;30526;52.184;4.476;2023-11-19T15:07:47;33.57;;;10.37;;
44810;SDS011;30526;52.184;4.476;2023-11-19T15:10:13;37.75;;;10.00;;